createdAt,value
2022-12-05T00:03:32.985Z,98879.09
2022-12-05T00:06:21.238Z,98894.69
2022-12-05T00:09:12.012Z,98900.09
2022-12-05T00:11:59.027Z,98884.28
2022-12-05T00:14:46.002Z,98902.25
2022-12-05T00:17:33.106Z,98897.28
2022-12-05T00:20:21.110Z,98896.78
2022-12-05T00:23:08.123Z,98891.75
2022-12-05T00:25:55.175Z,98909.81
2022-12-05T00:28:42.510Z,98914.69
2022-12-05T00:31:29.780Z,98904.38
2022-12-05T00:34:17.219Z,98909.91
2022-12-05T00:37:04.184Z,98905.13
2022-12-05T00:39:51.284Z,98919.56
2022-12-05T00:42:38.652Z,98928.59
2022-12-05T00:45:25.669Z,98929.59
2022-12-05T00:48:12.698Z,98930.75
2022-12-05T00:51:08.339Z,98950.41
2022-12-05T00:53:58.600Z,98938.09
2022-12-05T00:56:45.922Z,98946.47
2022-12-05T00:59:32.939Z,98943.41
2022-12-05T01:02:19.982Z,98964.44
2022-12-05T01:05:07.429Z,98958.78
2022-12-05T01:07:54.544Z,98916.25
2022-12-05T01:10:41.581Z,98933.13
2022-12-05T01:13:29.727Z,98967.50
2022-12-05T01:16:20.647Z,98969.19
2022-12-05T01:19:15.883Z,98961.94
2022-12-05T01:22:02.928Z,98956.22
2022-12-05T01:24:49.966Z,98945.53
2022-12-05T01:27:37.042Z,98935.69
2022-12-05T01:30:24.128Z,98939.38
2022-12-05T01:33:11.972Z,98941.94
2022-12-05T01:35:59.024Z,98949.44
2022-12-05T01:38:46.255Z,98937.47
2022-12-05T01:41:36.594Z,98977.63
2022-12-05T01:44:23.591Z,98986.63
2022-12-05T01:47:10.675Z,99007.25
2022-12-05T01:50:00.120Z,98998.25
2022-12-05T01:52:47.374Z,98997.09
2022-12-05T01:55:36.641Z,99008.41
2022-12-05T01:58:28.640Z,98998.84
2022-12-05T02:01:17.869Z,99007.66
2022-12-05T02:04:06.926Z,99025.72
2022-12-05T02:06:55.302Z,99012.28
2022-12-05T02:09:42.323Z,99034.03
2022-12-05T02:12:29.398Z,99039.28
2022-12-05T02:15:56.807Z,99055.34
2022-12-05T02:19:06.020Z,99059.03
2022-12-05T02:22:32.080Z,99057.53
2022-12-05T02:25:40.776Z,99059.78
2022-12-05T02:28:30.437Z,99054.59
2022-12-05T02:31:27.702Z,99033.22
2022-12-05T02:34:31.407Z,99027.19
2022-12-05T02:37:27.678Z,99004.81
2022-12-05T02:40:24.816Z,99009.53
2022-12-05T02:43:26.455Z,99005.38
2022-12-05T02:46:19.110Z,99012.25
2022-12-05T02:49:10.540Z,99005.28
2022-12-05T02:52:00.886Z,98986.38
2022-12-05T02:54:51.449Z,99011.84
2022-12-05T02:57:39.375Z,99008.06
2022-12-05T03:00:26.698Z,98994.53
2022-12-05T03:03:21.400Z,99022.19
2022-12-05T03:06:14.548Z,99030.34
2022-12-05T03:09:06.886Z,99037.09
2022-12-05T03:12:02.878Z,99038.06
2022-12-05T03:15:03.243Z,99054.09
2022-12-05T03:18:16.225Z,99046.38
2022-12-05T03:21:46.318Z,99047.88
2022-12-05T03:24:37.144Z,99056.41
2022-12-05T03:27:30.907Z,99058.56
2022-12-05T03:30:21.370Z,99062.91
2022-12-05T03:33:13.707Z,99054.28
2022-12-05T03:36:14.266Z,99071.88
2022-12-05T03:39:28.714Z,99068.97
2022-12-05T03:42:27.710Z,99081.53
2022-12-05T03:45:20.545Z,99069.25
2022-12-05T03:48:26.095Z,99086.59
2022-12-05T03:51:16.837Z,99080.94
2022-12-05T03:54:10.807Z,99076.97
2022-12-05T03:57:05.612Z,99073.97
2022-12-05T04:00:01.307Z,99083.97
2022-12-05T04:02:56.161Z,99095.41
2022-12-05T04:05:43.212Z,99097.00
2022-12-05T04:08:35.622Z,99089.63
2022-12-05T04:11:27.111Z,99101.81
2022-12-05T04:14:19.756Z,99096.16
2022-12-05T04:17:11.788Z,99108.44
2022-12-05T04:20:35.355Z,99102.78
2022-12-05T04:23:22.915Z,99087.69
2022-12-05T04:26:30.961Z,99102.97
2022-12-05T04:29:29.237Z,99105.50
2022-12-05T04:32:18.436Z,99078.84
2022-12-05T04:35:15.633Z,99117.03
2022-12-05T04:38:16.689Z,99092.00
2022-12-05T04:41:09.207Z,99112.78
2022-12-05T04:43:59.688Z,99112.66
2022-12-05T04:46:50.153Z,99107.41
2022-12-05T04:49:38.375Z,99103.22
2022-12-05T04:52:25.936Z,99123.25
2022-12-05T04:55:20.685Z,99113.59
2022-12-05T04:58:11.445Z,99115.13
2022-12-05T05:01:13.182Z,99122.97
2022-12-05T05:04:09.868Z,99122.13
2022-12-05T05:06:56.843Z,99127.59
2022-12-05T05:09:44.544Z,99126.56
2022-12-05T05:12:31.537Z,99119.94
2022-12-05T05:15:18.663Z,99113.84
2022-12-05T05:18:05.720Z,99082.88
2022-12-05T05:20:52.836Z,99121.34
2022-12-05T05:23:39.801Z,99137.16
2022-12-05T05:26:27.742Z,99143.09
2022-12-05T05:29:15.525Z,99143.66
2022-12-05T05:32:02.547Z,99133.78
2022-12-05T05:34:49.582Z,99125.31
2022-12-05T05:37:36.665Z,99126.63
2022-12-05T05:40:23.734Z,99131.97
2022-12-05T05:43:11.797Z,99132.75
2022-12-05T05:45:58.938Z,99139.53
2022-12-05T05:48:46.065Z,99129.16
2022-12-05T05:51:33.174Z,99146.34
2022-12-05T05:54:20.234Z,99149.94
2022-12-05T05:57:07.266Z,99157.72
2022-12-05T05:59:54.324Z,99153.81
2022-12-05T06:02:41.490Z,99154.28
2022-12-05T06:05:28.581Z,99159.88
2022-12-05T06:08:15.757Z,99148.41
2022-12-05T06:11:08.022Z,99158.66
2022-12-05T06:13:57.137Z,99161.72
2022-12-05T06:16:44.264Z,99161.72
2022-12-05T06:19:31.275Z,99147.72
2022-12-05T06:22:18.320Z,99138.88
2022-12-05T06:25:06.330Z,99160.44
2022-12-05T06:27:53.397Z,99164.91
2022-12-05T06:30:40.480Z,99160.97
2022-12-05T06:33:28.701Z,99169.38
2022-12-05T06:36:19.420Z,99187.63
2022-12-05T06:39:06.587Z,99185.78
2022-12-05T06:41:53.948Z,99184.41
2022-12-05T06:44:41.068Z,99199.38
2022-12-05T06:47:28.224Z,99212.69
2022-12-05T06:50:15.423Z,99209.28
2022-12-05T06:53:02.662Z,99206.16
2022-12-05T06:55:57.920Z,99201.44
2022-12-05T06:58:46.825Z,99208.50
2022-12-05T07:01:41.697Z,99202.56
2022-12-05T07:04:28.986Z,99210.22
2022-12-05T07:07:16.168Z,99215.31
2022-12-05T07:10:05.502Z,99212.59
2022-12-05T07:12:52.616Z,99215.63
2022-12-05T07:15:39.681Z,99212.75
2022-12-05T07:18:27.221Z,99222.59
2022-12-05T07:21:16.480Z,99222.06
2022-12-05T07:24:03.726Z,99229.72
2022-12-05T07:26:50.956Z,99234.94
2022-12-05T07:29:38.131Z,99237.72
2022-12-05T07:32:25.242Z,99238.34
2022-12-05T07:35:12.290Z,99239.28
2022-12-05T07:37:59.377Z,99247.25
2022-12-05T07:40:46.528Z,99218.91
2022-12-05T07:43:33.665Z,99248.75
2022-12-05T07:46:21.768Z,99261.00
2022-12-05T07:49:09.217Z,99264.63
2022-12-05T07:51:56.864Z,99270.78
2022-12-05T07:54:43.926Z,99275.78
2022-12-05T07:57:31.799Z,99264.63
2022-12-05T08:00:19.513Z,99261.47
2022-12-05T08:03:06.605Z,99282.75
2022-12-05T08:05:53.631Z,99267.13
2022-12-05T08:08:41.094Z,99289.94
2022-12-05T08:11:31.098Z,99285.94
2022-12-05T08:14:19.527Z,99273.25
2022-12-05T08:17:06.726Z,99286.88
2022-12-05T08:19:53.826Z,99305.91
2022-12-05T08:22:40.919Z,99308.69
2022-12-05T08:25:28.277Z,99296.03
2022-12-05T08:28:15.350Z,99285.25
2022-12-05T08:31:17.470Z,99317.84
2022-12-05T08:34:04.595Z,99297.94
2022-12-05T08:36:51.667Z,99321.31
2022-12-05T08:39:39.094Z,99326.00
2022-12-05T08:42:26.272Z,99314.31
2022-12-05T08:45:13.333Z,99338.84
2022-12-05T08:48:00.369Z,99332.91
2022-12-05T08:50:47.445Z,99342.56
2022-12-05T08:53:40.913Z,99344.28
2022-12-05T08:56:33.156Z,99357.31
2022-12-05T08:59:20.330Z,99361.38
2022-12-05T09:02:08.953Z,99369.44
2022-12-05T09:05:04.989Z,99359.50
2022-12-05T09:08:00.578Z,99381.38
2022-12-05T09:10:47.813Z,99368.69
2022-12-05T09:13:35.681Z,99362.13
2022-12-05T09:16:27.360Z,99387.13
2022-12-05T09:19:18.780Z,99389.53
2022-12-05T09:22:06.428Z,99377.25
2022-12-05T09:24:53.637Z,99383.53
2022-12-05T09:27:40.798Z,99389.69
2022-12-05T09:30:27.919Z,99385.88
2022-12-05T09:33:15.059Z,99379.91
2022-12-05T09:36:07.193Z,99378.97
2022-12-05T09:38:55.480Z,99388.13
2022-12-05T09:42:08.273Z,99384.28
2022-12-05T09:45:18.185Z,99377.28
2022-12-05T09:48:13.914Z,99374.09
2022-12-05T09:51:03.723Z,99361.31
2022-12-05T09:53:50.823Z,99373.53
2022-12-05T09:56:39.167Z,99362.91
2022-12-05T09:59:26.232Z,99360.13
2022-12-05T10:02:24.801Z,99351.97
2022-12-05T10:05:25.832Z,99357.81
2022-12-05T10:08:31.622Z,99349.94
2022-12-05T10:11:21.839Z,99341.75
2022-12-05T10:14:08.833Z,99354.97
2022-12-05T10:17:02.816Z,99344.31
2022-12-05T10:19:52.890Z,99343.00
2022-12-05T10:22:47.821Z,99327.63
2022-12-05T10:25:36.552Z,99337.31
2022-12-05T10:28:33.905Z,99337.69
2022-12-05T10:31:27.997Z,99339.94
2022-12-05T10:34:21.057Z,99333.66
2022-12-05T10:37:17.910Z,99338.22
2022-12-05T10:40:05.560Z,99317.63
2022-12-05T10:42:52.847Z,99328.38
2022-12-05T10:45:44.868Z,99322.41
2022-12-05T10:48:36.758Z,99322.69
2022-12-05T10:51:31.299Z,99308.38
2022-12-05T10:54:26.400Z,99305.28
2022-12-05T10:57:32.439Z,99313.88
2022-12-05T11:00:30.604Z,99314.31
2022-12-05T11:03:33.602Z,99302.84
2022-12-05T11:06:26.673Z,99299.50
2022-12-05T11:09:19.495Z,99306.22
2022-12-05T11:12:09.537Z,99306.53
2022-12-05T11:15:01.770Z,99327.25
2022-12-05T11:17:50.181Z,99292.16
2022-12-05T11:20:39.582Z,99308.91
2022-12-05T11:23:31.066Z,99312.19
2022-12-05T11:26:37.826Z,99298.03
2022-12-05T11:29:38.096Z,99319.84
2022-12-05T11:32:26.681Z,99325.06
2022-12-05T11:35:13.788Z,99309.31
2022-12-05T11:38:03.635Z,99305.63
2022-12-05T11:40:59.970Z,99292.22
2022-12-05T11:44:02.137Z,99314.53
2022-12-05T11:47:15.381Z,99288.94
2022-12-05T11:50:30.727Z,99304.75
2022-12-05T11:53:50.527Z,99303.06
2022-12-05T11:56:53.357Z,99305.19
2022-12-05T11:59:58.595Z,99309.00
2022-12-05T12:03:07.512Z,99317.00
2022-12-05T12:06:29.220Z,99314.31
2022-12-05T12:09:32.845Z,99320.56
2022-12-05T12:12:38.360Z,99311.25
2022-12-05T12:15:44.943Z,99321.66
2022-12-05T12:19:08.834Z,99311.66
2022-12-05T12:22:14.089Z,99315.59
2022-12-05T12:25:23.785Z,99322.69
2022-12-05T12:28:22.685Z,99317.72
2022-12-05T12:31:12.752Z,99330.81
2022-12-05T12:34:23.134Z,99317.94
2022-12-05T12:37:22.378Z,99319.66
2022-12-05T12:40:23.192Z,99327.63
2022-12-05T12:43:17.609Z,99328.56
2022-12-05T12:46:39.261Z,99324.53
2022-12-05T12:49:44.697Z,99314.31
2022-12-05T12:53:06.380Z,99295.72
2022-12-05T12:56:12.247Z,99313.56
2022-12-05T12:59:27.046Z,99282.41
2022-12-05T13:02:32.168Z,99296.88
2022-12-05T13:05:59.231Z,99312.72
2022-12-05T13:09:19.947Z,99248.97
2022-12-05T13:12:13.212Z,99287.94
2022-12-05T13:15:08.195Z,99274.53
2022-12-05T13:17:55.335Z,99287.00
2022-12-05T13:20:42.606Z,99286.56
2022-12-05T13:23:33.039Z,99278.16
2022-12-05T13:26:20.304Z,99293.69
2022-12-05T13:29:15.778Z,99290.50
2022-12-05T13:32:05.673Z,99304.31
2022-12-05T13:34:53.175Z,99311.13
2022-12-05T13:38:07.238Z,99301.13
2022-12-05T13:41:12.954Z,99303.78
2022-12-05T13:44:06.635Z,99311.25
2022-12-05T13:46:54.375Z,99315.38
2022-12-05T13:49:45.893Z,99317.63
2022-12-05T13:52:41.629Z,99305.50
2022-12-05T13:55:39.489Z,99320.91
2022-12-05T13:58:26.535Z,99316.25
2022-12-05T14:01:34.886Z,99325.19
2022-12-05T14:04:48.194Z,99328.88
2022-12-05T14:07:55.674Z,99326.25
2022-12-05T14:10:46.271Z,99336.13
2022-12-05T14:13:33.782Z,99335.06
2022-12-05T14:16:24.061Z,99336.94
2022-12-05T14:19:33.998Z,99338.56
2022-12-05T14:22:41.791Z,99334.97
2022-12-05T14:25:58.341Z,99345.25
2022-12-05T14:29:12.506Z,99340.88
2022-12-05T14:32:18.319Z,99345.16
2022-12-05T14:35:29.223Z,99352.19
2022-12-05T14:38:31.029Z,99350.38
2022-12-05T14:41:33.482Z,99348.34
2022-12-05T14:44:20.627Z,99343.56
2022-12-05T14:47:18.170Z,99343.03
2022-12-05T14:50:24.036Z,99350.59
2022-12-05T14:53:32.455Z,99346.25
2022-12-05T14:56:23.431Z,99334.22
2022-12-05T14:59:25.271Z,99331.66
2022-12-05T15:02:23.378Z,99328.25
2022-12-05T15:05:30.518Z,99311.56
2022-12-05T15:08:18.182Z,99325.69
2022-12-05T15:11:05.365Z,99329.53
2022-12-05T15:13:53.065Z,99332.72
2022-12-05T15:16:43.858Z,99334.19
2022-12-05T15:19:42.219Z,99336.34
2022-12-05T15:22:32.671Z,99350.06
2022-12-05T15:25:25.348Z,99343.97
2022-12-05T15:28:20.063Z,99350.56
2022-12-05T15:31:13.621Z,99320.06
2022-12-05T15:34:43.816Z,99339.53
2022-12-05T15:37:52.152Z,99345.16
2022-12-05T15:40:45.769Z,99326.56
2022-12-05T15:43:34.668Z,99338.78
2022-12-05T15:46:24.625Z,99338.25
2022-12-05T15:49:23.340Z,99330.47
2022-12-05T15:52:19.437Z,99335.28
2022-12-05T15:55:12.823Z,99321.13
2022-12-05T15:58:24.610Z,99336.13
2022-12-05T16:01:22.950Z,99323.25
2022-12-05T16:04:16.934Z,99341.13
2022-12-05T16:07:09.725Z,99335.59
2022-12-05T16:10:00.840Z,99339.09
2022-12-05T16:12:50.316Z,99351.09
2022-12-05T16:15:37.485Z,99343.97
2022-12-05T16:18:31.131Z,99345.16
2022-12-05T16:21:41.274Z,99341.34
2022-12-05T16:24:30.334Z,99337.59
2022-12-05T16:27:27.348Z,99337.63
2022-12-05T16:30:20.387Z,99343.47
2022-12-05T16:33:14.782Z,99350.56
2022-12-05T16:36:13.764Z,99331.31
2022-12-05T16:39:04.040Z,99339.50
2022-12-05T16:41:52.094Z,99321.78
2022-12-05T16:44:48.157Z,99331.75
2022-12-05T16:47:41.418Z,99325.28
2022-12-05T16:50:32.984Z,99322.09
2022-12-05T16:53:32.034Z,99298.59
2022-12-05T16:56:32.020Z,99308.59
2022-12-05T16:59:48.516Z,99299.00
2022-12-05T17:02:36.081Z,99311.88
2022-12-05T17:05:25.046Z,99298.25
2022-12-05T17:08:13.696Z,99301.03
2022-12-05T17:11:03.825Z,99308.25
2022-12-05T17:13:52.293Z,99304.00
2022-12-05T17:16:40.088Z,99309.44
2022-12-05T17:19:31.962Z,99296.66
2022-12-05T17:22:19.256Z,99321.34
2022-12-05T17:25:28.681Z,99319.09
2022-12-05T17:28:16.635Z,99325.91
2022-12-05T17:31:05.117Z,99321.00
2022-12-05T17:33:54.669Z,99332.41
2022-12-05T17:36:42.440Z,99330.47
2022-12-05T17:39:29.756Z,99282.94
2022-12-05T17:42:16.908Z,99294.97
2022-12-05T17:45:06.444Z,99327.41
2022-12-05T17:47:53.947Z,99316.03
2022-12-05T17:50:42.937Z,99312.72
2022-12-05T17:53:30.353Z,99322.19
2022-12-05T17:56:17.478Z,99309.09
2022-12-05T17:59:07.380Z,99315.50
2022-12-05T18:01:55.087Z,99320.50
2022-12-05T18:04:42.193Z,99310.50
2022-12-05T18:07:29.887Z,99303.56
2022-12-05T18:10:20.291Z,99329.00
2022-12-05T18:13:07.665Z,99319.00
2022-12-05T18:15:59.448Z,99321.88
2022-12-05T18:18:46.815Z,99320.16
2022-12-05T18:21:34.097Z,99311.34
2022-12-05T18:24:21.934Z,99302.09
2022-12-05T18:27:11.745Z,99306.88
2022-12-05T18:29:59.226Z,99300.91
2022-12-05T18:32:47.191Z,99284.13
2022-12-05T18:35:41.034Z,99296.47
2022-12-05T18:38:28.595Z,99297.53
2022-12-05T18:41:16.182Z,99282.34
2022-12-05T18:44:03.880Z,99282.34
2022-12-05T18:46:51.770Z,99290.84
2022-12-05T18:49:39.670Z,99298.91
2022-12-05T18:52:26.978Z,99280.53
2022-12-05T18:55:19.740Z,99289.53
2022-12-05T18:58:12.618Z,99310.72
2022-12-05T19:01:07.838Z,99312.19
2022-12-05T19:04:00.922Z,99308.03
2022-12-05T19:06:54.329Z,99304.97
2022-12-05T19:09:41.875Z,99312.41
2022-12-05T19:12:30.609Z,99296.25
2022-12-05T19:15:18.622Z,99285.19
2022-12-05T19:18:07.348Z,99284.22
2022-12-05T19:20:58.609Z,99299.22
2022-12-05T19:23:46.414Z,99284.78
2022-12-05T19:26:34.854Z,99281.34
2022-12-05T19:29:23.058Z,99265.41
2022-12-05T19:32:11.221Z,99278.16
2022-12-05T19:34:59.908Z,99282.53
2022-12-05T19:37:48.165Z,99287.72
2022-12-05T19:40:36.157Z,99267.75
2022-12-05T19:43:24.287Z,99270.97
2022-12-05T19:46:16.280Z,99276.91
2022-12-05T19:49:07.978Z,99284.78
2022-12-05T19:51:56.037Z,99286.44
2022-12-05T19:54:45.599Z,99291.75
2022-12-05T19:57:33.775Z,99285.59
2022-12-05T20:00:21.678Z,99277.13
2022-12-05T20:03:12.353Z,99272.75
2022-12-05T20:06:01.636Z,99286.25
2022-12-05T20:08:53.094Z,99287.31
2022-12-05T20:11:49.521Z,99280.41
2022-12-05T20:14:40.719Z,99263.28
2022-12-05T20:17:31.613Z,99272.31
2022-12-05T20:20:19.873Z,99251.69
2022-12-05T20:23:08.705Z,99249.03
2022-12-05T20:25:56.534Z,99282.91
2022-12-05T20:28:47.265Z,99300.34
2022-12-05T20:31:37.595Z,99287.06
2022-12-05T20:34:25.778Z,99266.53
2022-12-05T20:37:13.276Z,99272.72
2022-12-05T20:40:01.182Z,99262.97
2022-12-05T20:42:50.243Z,99252.75
2022-12-05T20:45:37.937Z,99250.94
2022-12-05T20:48:26.698Z,99247.75
2022-12-05T20:51:17.467Z,99250.00
2022-12-05T20:54:07.067Z,99245.09
2022-12-05T20:56:54.597Z,99255.88
2022-12-05T20:59:42.109Z,99259.31
2022-12-05T21:02:30.944Z,99267.06
2022-12-05T21:05:18.518Z,99259.72
2022-12-05T21:08:06.154Z,99248.59
2022-12-05T21:10:53.964Z,99274.63
2022-12-05T21:13:41.775Z,99261.91
2022-12-05T21:16:28.906Z,99266.03
2022-12-05T21:19:16.381Z,99264.66
2022-12-05T21:22:03.606Z,99286.84
2022-12-05T21:24:50.607Z,99298.59
2022-12-05T21:27:37.785Z,99279.66
2022-12-05T21:30:25.173Z,99297.47
2022-12-05T21:33:12.460Z,99302.56
2022-12-05T21:35:59.505Z,99307.88
2022-12-05T21:38:50.919Z,99300.31
2022-12-05T21:41:42.627Z,99306.59
2022-12-05T21:44:29.696Z,99300.91
2022-12-05T21:47:16.675Z,99292.19
2022-12-05T21:50:03.878Z,99302.19
2022-12-05T21:52:50.898Z,99294.34
2022-12-05T21:55:37.940Z,99299.16
2022-12-05T21:58:24.928Z,99302.16
2022-12-05T22:01:17.627Z,99312.06
2022-12-05T22:04:04.855Z,99303.09
2022-12-05T22:06:52.053Z,99312.13
2022-12-05T22:09:39.045Z,99316.16
2022-12-05T22:12:26.243Z,99316.69
2022-12-05T22:15:13.365Z,99317.97
2022-12-05T22:18:00.463Z,99300.56
2022-12-05T22:20:58.033Z,99310.28
2022-12-05T22:23:46.076Z,99299.88
2022-12-05T22:26:33.127Z,99307.91
2022-12-05T22:29:20.140Z,99304.88
2022-12-05T22:32:07.145Z,99300.50
2022-12-05T22:34:55.318Z,99310.63
2022-12-05T22:37:43.927Z,99313.38
2022-12-05T22:40:30.959Z,99316.94
2022-12-05T22:43:17.973Z,99312.59
2022-12-05T22:46:09.909Z,99319.69
2022-12-05T22:48:57.406Z,99312.38
2022-12-05T22:51:44.555Z,99308.88
2022-12-05T22:54:31.565Z,99309.06
2022-12-05T22:57:18.558Z,99308.97
2022-12-05T23:00:06.705Z,99312.81
2022-12-05T23:02:53.770Z,99315.03
2022-12-05T23:05:42.324Z,99321.75
2022-12-05T23:08:29.456Z,99313.41
2022-12-05T23:11:18.906Z,99306.84
2022-12-05T23:14:06.126Z,99294.63
2022-12-05T23:16:53.137Z,99297.28
2022-12-05T23:19:40.209Z,99311.94
2022-12-05T23:22:27.276Z,99315.53
2022-12-05T23:25:14.394Z,99310.25
2022-12-05T23:28:01.445Z,99296.94
2022-12-05T23:30:48.479Z,99290.28
2022-12-05T23:33:35.771Z,99290.09
2022-12-05T23:36:22.882Z,99296.94
2022-12-05T23:39:10.108Z,99297.28
2022-12-05T23:41:57.156Z,99277.66
2022-12-05T23:44:44.246Z,99280.03
2022-12-05T23:47:31.294Z,99283.78
2022-12-05T23:50:18.774Z,99274.41
2022-12-05T23:53:05.814Z,99275.28
2022-12-05T23:55:52.805Z,99267.63
2022-12-05T23:58:40.627Z,99266.13
